Time;durP1;ratioP1;P1;durP2;ratioP2;P2;SDS_P1;SDS_P2;PMS_P1;PMS_P2;Temp;Humidity;BMP_temperature;BMP_pressure;BME280_temperature;BME280_humidity;BME280_pressure;Samples;Min_cycle;Max_cycle;Signal;HPM_P1;HPM_P2
2022/01/30 00:00:09;;;;;;;0.40;0.40;;;;;;;5.52;81.13;97405.47;5078474;28;20052;-81
2022/01/30 00:02:38;;;;;;;0.57;0.57;;;;;;;5.54;81.18;97401.00;5078369;28;20044;-77
2022/01/30 00:05:07;;;;;;;0.77;0.70;;;;;;;5.55;81.01;97396.63;5078330;28;20430;-78
2022/01/30 00:07:35;;;;;;;0.70;0.70;;;;;;;5.55;80.38;97394.03;5077532;28;20052;-78
2022/01/30 00:10:05;;;;;;;0.68;0.68;;;;;;;5.56;80.58;97398.28;5077563;28;20059;-77
2022/01/30 00:12:41;;;;;;;1.65;0.80;;;;;;;5.57;80.55;97377.47;5078331;28;20044;-77
2022/01/30 00:15:10;;;;;;;0.57;0.57;;;;;;;5.58;80.75;97396.38;5078192;28;20052;-79
2022/01/30 00:17:44;;;;;;;0.60;0.60;;;;;;;5.60;81.24;97394.50;5077074;28;20045;-79
2022/01/30 00:20:18;;;;;;;0.80;0.80;;;;;;;5.61;80.68;97392.72;5078506;28;20060;-78
2022/01/30 00:22:52;;;;;;;0.77;0.70;;;;;;;5.64;80.84;97405.38;5077907;28;20068;-79
2022/01/30 00:25:31;;;;;;;1.27;0.85;;;;;;;5.63;80.46;97396.81;5077101;28;20052;-78
2022/01/30 00:28:05;;;;;;;1.15;1.05;;;;;;;5.64;80.43;97411.41;5077325;28;20059;-79
2022/01/30 00:30:35;;;;;;;0.60;0.60;;;;;;;5.64;80.71;97407.97;5077396;28;20431;-79
2022/01/30 00:33:04;;;;;;;0.63;0.50;;;;;;;5.62;80.85;97397.78;5077527;28;20056;-80
2022/01/30 00:35:35;;;;;;;0.50;0.50;;;;;;;5.61;80.57;97385.75;5077195;28;20049;-78
2022/01/30 00:38:05;;;;;;;1.10;0.50;;;;;;;5.60;80.91;97384.13;5076992;28;20044;-79
2022/01/30 00:40:35;;;;;;;0.60;0.57;;;;;;;5.61;81.07;97392.72;5077155;28;20084;-78
2022/01/30 00:43:04;;;;;;;0.85;0.80;;;;;;;5.61;81.18;97385.75;5076862;28;20059;-77
2022/01/30 00:45:32;;;;;;;1.17;1.08;;;;;;;5.61;81.11;97387.53;5077365;28;20044;-77
2022/01/30 00:47:59;;;;;;;1.13;0.73;;;;;;;5.60;81.22;97384.13;5076385;28;20059;-78
2022/01/30 00:50:28;;;;;;;0.73;0.55;;;;;;;5.58;81.16;97383.44;5076306;28;20055;-76
2022/01/30 00:52:56;;;;;;;0.57;0.57;;;;;;;5.56;81.23;97382.75;5077295;28;20063;-78
2022/01/30 00:55:25;;;;;;;0.65;0.65;;;;;;;5.56;81.41;97377.59;5076970;28;20494;-78
2022/01/30 00:57:53;;;;;;;0.90;0.70;;;;;;;5.55;81.21;97379.38;5077198;28;20422;-76
2022/01/30 01:00:21;;;;;;;0.60;0.60;;;;;;;5.56;81.29;97393.13;5076714;28;20072;-79
2022/01/30 01:02:48;;;;;;;0.57;0.47;;;;;;;5.55;81.33;97387.13;5076081;28;20048;-80
2022/01/30 01:05:17;;;;;;;0.45;0.45;;;;;;;5.54;81.13;97395.00;5076702;28;20078;-79
2022/01/30 01:07:48;;;;;;;0.85;0.47;;;;;;;5.54;81.44;97401.00;5076362;28;20048;-78
2022/01/30 01:10:26;;;;;;;0.70;0.68;;;;;;;5.53;81.49;97389.03;5076909;28;20048;-80
2022/01/30 01:13:08;;;;;;;0.88;0.57;;;;;;;5.55;81.69;97409.56;5076127;28;20052;-78
2022/01/30 01:24:04;;;;;;;0.98;0.73;;;;;;;5.54;81.93;97418.31;5076241;28;20061;-79
2022/01/30 01:26:32;;;;;;;0.77;0.77;;;;;;;5.56;81.70;97413.81;5075687;28;20449;-79
2022/01/30 01:29:00;;;;;;;0.90;0.80;;;;;;;5.57;81.81;97405.09;5076118;28;20269;-79
2022/01/30 01:31:28;;;;;;;1.67;1.23;;;;;;;5.56;81.89;97409.44;5075550;28;20441;-80
2022/01/30 01:36:37;;;;;;;2.45;0.98;;;;;;;5.57;81.91;97394.72;5072938;28;20074;-79
2022/01/30 01:39:06;;;;;;;1.30;0.80;;;;;;;5.56;81.94;97388.75;5075449;28;20052;-78
2022/01/30 01:41:36;;;;;;;2.15;1.00;;;;;;;5.59;82.22;97392.84;5075793;28;20044;-79
2022/01/30 01:44:04;;;;;;;2.67;1.10;;;;;;;5.61;82.22;97390.13;5075630;28;20051;-82
2022/01/30 01:46:35;;;;;;;2.58;1.75;;;;;;;5.61;81.96;97396.13;5075397;28;20135;-79
2022/01/30 01:49:03;;;;;;;1.00;0.90;;;;;;;5.62;82.09;97404.69;5075888;28;20049;-79
2022/01/30 01:51:32;;;;;;;1.17;0.90;;;;;;;5.63;82.32;97399.41;5075652;28;20109;-80
2022/01/30 01:54:00;;;;;;;1.30;1.00;;;;;;;5.66;82.18;97393.13;5075953;28;20059;-80
2022/01/30 01:56:30;;;;;;;1.15;0.98;;;;;;;5.67;82.15;97405.94;5076736;28;20045;-80
2022/01/30 01:58:58;;;;;;;0.95;0.85;;;;;;;5.68;82.30;97391.22;5076735;28;20052;-78
2022/01/30 02:01:26;;;;;;;1.30;1.20;;;;;;;5.68;81.84;97386.88;5076824;28;20056;-79
2022/01/30 02:03:54;;;;;;;1.55;0.90;;;;;;;5.68;81.82;97392.03;5076362;28;20048;-78
2022/01/30 02:06:25;;;;;;;1.38;1.00;;;;;;;5.68;82.40;97386.06;5076038;28;20048;-80
2022/01/30 02:08:57;;;;;;;1.52;0.80;;;;;;;5.70;82.22;97389.34;5076181;28;20053;-80
2022/01/30 02:11:35;;;;;;;1.42;1.30;;;;;;;5.71;82.51;97384.03;5079482;28;20044;-78
2022/01/30 02:14:25;;;;;;;1.63;1.00;;;;;;;5.74;82.48;97385.53;5081552;28;20055;-79
2022/01/30 02:25:36;;;;;;;1.98;1.15;;;;;;;5.75;82.02;97387.16;5079769;28;20500;-79
2022/01/30 02:28:09;;;;;;;2.85;1.17;;;;;;;5.75;82.25;97387.16;5079632;28;20067;-80
2022/01/30 02:30:44;;;;;;;1.08;1.08;;;;;;;5.76;82.26;97381.84;5079302;28;20127;-78
2022/01/30 02:33:12;;;;;;;1.75;1.55;;;;;;;5.75;82.25;97388.00;5079837;28;20395;-80
2022/01/30 02:35:39;;;;;;;1.52;1.08;;;;;;;5.75;82.55;97393.19;5079284;28;20056;-79
2022/01/30 02:38:08;;;;;;;4.45;2.03;;;;;;;5.77;82.74;97404.22;5080224;28;20052;-80
2022/01/30 02:40:40;;;;;;;4.03;1.40;;;;;;;5.78;82.84;97392.91;5080939;28;20448;-79
2022/01/30 02:43:08;;;;;;;1.48;1.35;;;;;;;5.78;82.44;97387.72;5080313;28;20098;-78
2022/01/30 02:45:39;;;;;;;1.63;1.38;;;;;;;5.80;82.83;97386.78;5080442;28;20056;-77
2022/01/30 02:48:16;;;;;;;1.65;1.55;;;;;;;5.80;82.65;97389.38;5079877;28;20123;-79
2022/01/30 02:50:55;;;;;;;1.73;1.25;;;;;;;5.78;82.52;97395.50;5081013;28;20048;-78
2022/01/30 02:53:30;;;;;;;2.78;1.65;;;;;;;5.77;82.88;97388.69;5079035;28;20063;-76
2022/01/30 02:55:58;;;;;;;1.38;1.27;;;;;;;5.78;83.18;97397.28;5079097;28;20056;-79
2022/01/30 02:58:26;;;;;;;2.47;1.67;;;;;;;5.78;83.12;97402.44;5079257;28;20498;-77
2022/01/30 03:00:53;;;;;;;1.70;1.60;;;;;;;5.80;82.86;97404.91;5079737;28;20055;-78
2022/01/30 03:03:21;;;;;;;3.22;1.80;;;;;;;5.81;82.90;97409.13;5080593;28;20446;-79
2022/01/30 03:05:49;;;;;;;3.08;1.73;;;;;;;5.81;83.03;97407.34;5080258;28;20055;-78
2022/01/30 03:08:17;;;;;;;2.45;1.75;;;;;;;5.83;83.04;97396.88;5079014;28;20053;-78
2022/01/30 03:10:45;;;;;;;3.30;2.67;;;;;;;5.84;83.17;97395.91;5079821;28;20056;-77
2022/01/30 03:13:13;;;;;;;6.10;2.28;;;;;;;5.86;83.16;97397.44;5079345;28;20494;-80
2022/01/30 03:15:40;;;;;;;1.85;1.73;;;;;;;5.88;83.29;97392.09;5079791;28;20139;-77
2022/01/30 03:18:08;;;;;;;2.03;1.80;;;;;;;5.89;82.93;97397.16;5078860;28;20052;-79
2022/01/30 03:20:36;;;;;;;3.83;2.20;;;;;;;5.92;83.29;97396.06;5080585;28;20048;-79
2022/01/30 03:23:03;;;;;;;3.55;2.10;;;;;;;5.91;83.14;97399.63;5080407;28;20044;-77
2022/01/30 03:25:32;;;;;;;3.50;2.17;;;;;;;5.92;83.35;97398.66;5078588;28;20101;-79
2022/01/30 03:28:04;;;;;;;4.80;2.28;;;;;;;5.91;83.12;97397.84;5079088;28;20048;-78
2022/01/30 03:30:32;;;;;;;3.80;2.08;;;;;;;5.91;83.19;97410.78;5096794;28;20041;-77
2022/01/30 03:33:00;;;;;;;2.53;2.30;;;;;;;5.90;83.22;97398.81;5097726;28;20056;-76
2022/01/30 03:35:27;;;;;;;3.03;2.38;;;;;;;5.92;83.19;97406.44;5087878;28;20052;-78
2022/01/30 03:37:55;;;;;;;2.65;2.25;;;;;;;5.93;83.13;97408.09;5081904;28;20040;-75
2022/01/30 03:40:22;;;;;;;5.72;2.70;;;;;;;5.94;83.27;97401.94;5097601;28;20032;-79
2022/01/30 03:42:50;;;;;;;2.70;2.40;;;;;;;5.95;83.19;97399.25;5078730;28;20047;-77
2022/01/30 03:45:18;;;;;;;2.17;1.80;;;;;;;5.95;83.09;97393.25;5095802;28;20048;-76
2022/01/30 03:47:46;;;;;;;4.47;2.85;;;;;;;5.97;83.12;97401.72;5094462;28;20403;-77
2022/01/30 03:50:13;;;;;;;2.75;2.13;;;;;;;5.98;83.11;97400.75;5079122;28;20178;-76
2022/01/30 03:52:41;;;;;;;5.10;2.33;;;;;;;6.00;82.88;97401.44;5079123;28;20040;-79
2022/01/30 03:55:09;;;;;;;2.58;2.17;;;;;;;6.00;82.93;97398.84;5076581;28;20500;-79
2022/01/30 03:57:37;;;;;;;3.03;1.85;;;;;;;6.03;82.71;97410.72;5078399;28;20060;-78
2022/01/30 04:00:06;;;;;;;2.50;2.08;;;;;;;6.02;82.71;97415.06;5079814;28;20049;-77
2022/01/30 04:02:36;;;;;;;3.58;1.88;;;;;;;6.02;82.38;97425.44;5079794;28;20426;-76
2022/01/30 04:05:05;;;;;;;2.50;2.30;;;;;;;6.04;82.53;97422.72;5078769;28;20048;-77
2022/01/30 04:07:33;;;;;;;3.35;2.10;;;;;;;6.03;82.43;97427.06;5077733;28;20060;-78
2022/01/30 04:10:01;;;;;;;2.78;2.58;;;;;;;6.02;82.51;97425.44;5078198;28;20094;-79
2022/01/30 04:12:31;;;;;;;6.40;2.58;;;;;;;6.02;82.49;97435.81;5077856;28;20052;-77
2022/01/30 04:14:59;;;;;;;6.30;2.75;;;;;;;6.04;82.50;97433.91;5078375;28;20048;-76
2022/01/30 04:17:27;;;;;;;4.00;2.60;;;;;;;6.05;82.45;97435.53;5077903;28;20058;-78
2022/01/30 04:19:56;;;;;;;4.05;2.95;;;;;;;6.06;82.55;97447.53;5077857;28;20051;-78
2022/01/30 04:22:24;;;;;;;8.15;3.03;;;;;;;6.06;82.68;97436.38;5078587;28;20063;-76
2022/01/30 04:24:51;;;;;;;5.78;2.75;;;;;;;6.03;82.31;97436.59;5078459;28;20056;-77
2022/01/30 04:27:20;;;;;;;6.50;3.60;;;;;;;6.01;82.22;97457.44;5077068;28;20521;-79
2022/01/30 04:29:48;;;;;;;5.20;3.72;;;;;;;5.98;82.38;97455.94;5077336;28;20056;-78
2022/01/30 04:32:17;;;;;;;9.82;3.72;;;;;;;5.95;82.31;97455.41;5078186;28;20044;-79
2022/01/30 04:34:52;;;;;;;5.07;3.15;;;;;;;5.94;82.19;97456.31;5077458;28;20433;-79
2022/01/30 04:37:27;;;;;;;7.35;3.20;;;;;;;5.94;82.32;97458.91;5077107;28;20052;-77
2022/01/30 04:40:18;;;;;;;9.85;3.63;;;;;;;5.93;82.09;97462.47;5077868;28;20060;-78
2022/01/30 04:56:58;;;;;;;9.05;3.42;;;;;;;5.80;81.82;97480.00;5076626;28;20437;-77
2022/01/30 04:59:46;;;;;;;10.45;4.03;;;;;;;5.81;81.89;97473.84;5077186;28;20494;-78
2022/01/30 05:02:32;;;;;;;8.70;3.83;;;;;;;5.81;82.17;97473.84;5078420;28;20057;-80
2022/01/30 05:05:21;;;;;;;6.50;3.22;;;;;;;5.81;81.37;97473.84;5076706;28;20055;-77
2022/01/30 05:07:50;;;;;;;10.07;3.83;;;;;;;5.79;81.47;97479.16;5076518;28;20464;-77
2022/01/30 05:10:19;;;;;;;8.43;3.40;;;;;;;5.78;81.40;97477.53;5077348;28;20044;-78
2022/01/30 05:12:50;;;;;;;9.45;3.55;;;;;;;5.77;81.71;97478.47;5077830;28;20048;-76
2022/01/30 05:15:19;;;;;;;6.47;2.85;;;;;;;5.76;81.69;97485.41;5077862;28;20154;-78
2022/01/30 05:17:47;;;;;;;6.03;3.33;;;;;;;5.76;81.83;97477.66;5076997;28;20048;-76
2022/01/30 05:20:15;;;;;;;7.18;3.47;;;;;;;5.75;81.85;97481.19;5078290;28;20048;-78
2022/01/30 05:22:43;;;;;;;9.63;4.53;;;;;;;5.74;81.52;97499.44;5077771;28;20053;-76
2022/01/30 05:25:12;;;;;;;7.30;3.42;;;;;;;5.73;81.61;97503.00;5080023;28;20045;-79
2022/01/30 05:27:42;;;;;;;11.40;3.97;;;;;;;5.71;81.71;97490.16;5077760;28;20100;-81
2022/01/30 05:30:13;;;;;;;;;;;;;;;5.73;82.25;97498.63;5078114;28;20139;-76
2022/01/30 05:32:41;;;;;;;5.97;2.90;;;;;;;5.69;81.41;97497.25;5077496;28;20206;-79
2022/01/30 05:35:10;;;;;;;6.97;2.90;;;;;;;5.68;81.49;97495.59;5078310;28;20124;-77
2022/01/30 05:37:42;;;;;;;6.05;2.85;;;;;;;5.68;81.17;97505.94;5078096;28;20522;-78
2022/01/30 05:40:10;;;;;;;5.10;2.92;;;;;;;5.68;81.16;97505.13;5077618;28;20074;-78
2022/01/30 05:42:39;;;;;;;9.57;3.30;;;;;;;5.69;81.47;97501.59;5077653;28;20055;-78
2022/01/30 05:45:17;;;;;;;14.15;3.65;;;;;;;5.70;81.43;97498.88;5079005;28;20405;-81
2022/01/30 05:47:51;;;;;;;8.07;3.50;;;;;;;5.71;81.69;97508.28;5081670;28;20052;-78
2022/01/30 05:50:19;;;;;;;8.90;3.28;;;;;;;5.72;81.37;97499.56;5081773;28;20044;-78
2022/01/30 05:52:46;;;;;;;8.07;3.10;;;;;;;5.73;81.27;97503.81;5082024;28;20123;-79
2022/01/30 05:55:14;;;;;;;9.13;3.17;;;;;;;5.76;81.17;97516.47;5081282;28;20434;-79
2022/01/30 05:57:42;;;;;;;9.45;3.35;;;;;;;5.77;81.34;97519.88;5080322;28;20411;-77
2022/01/30 06:00:14;;;;;;;10.45;4.63;;;;;;;5.78;80.92;97530.13;5081238;28;20072;-78
2022/01/30 06:02:42;;;;;;;7.68;2.80;;;;;;;5.79;80.81;97528.34;5082729;28;20048;-81
2022/01/30 06:05:10;;;;;;;11.50;3.83;;;;;;;5.80;80.74;97535.19;5081928;28;20266;-76
2022/01/30 06:07:46;;;;;;;9.30;2.95;;;;;;;5.78;80.76;97543.06;5081192;28;20048;-78
2022/01/30 06:10:14;;;;;;;12.18;3.50;;;;;;;5.77;81.32;97541.44;5081569;28;20063;-76
2022/01/30 06:12:41;;;;;;;8.32;3.28;;;;;;;5.76;81.08;97544.97;5083577;28;20059;-79
2022/01/30 06:15:11;;;;;;;8.80;4.55;;;;;;;5.74;81.00;97549.44;5082778;28;20059;-76
2022/01/30 06:17:38;;;;;;;10.30;3.95;;;;;;;5.75;81.05;97547.66;5084308;28;20059;-80
2022/01/30 06:20:07;;;;;;;8.40;3.10;;;;;;;5.73;80.92;97545.22;5080800;28;20079;-80
2022/01/30 06:22:34;;;;;;;4.95;2.65;;;;;;;5.74;80.66;97544.25;5083618;28;20121;-78
2022/01/30 06:25:02;;;;;;;6.78;3.15;;;;;;;5.74;80.55;97536.50;5083229;28;20048;-80
2022/01/30 06:27:30;;;;;;;7.32;2.97;;;;;;;5.75;80.41;97542.50;5079988;28;20525;-78
2022/01/30 06:29:58;;;;;;;10.50;3.13;;;;;;;5.72;80.41;97535.81;5079954;28;20052;-77
2022/01/30 06:32:27;;;;;;;10.55;3.63;;;;;;;5.69;80.25;97543.03;5078168;28;20048;-75
2022/01/30 06:34:54;;;;;;;10.40;2.78;;;;;;;5.66;80.56;97546.66;5074908;28;20045;-77
2022/01/30 06:37:22;;;;;;;9.45;3.63;;;;;;;5.66;80.13;97543.25;5077258;28;20053;-78
2022/01/30 06:39:49;;;;;;;8.75;3.60;;;;;;;5.64;80.29;97546.00;5079921;28;20064;-77
2022/01/30 06:42:18;;;;;;;9.05;3.53;;;;;;;5.63;80.31;97557.28;5078205;28;20045;-77
2022/01/30 06:44:46;;;;;;;8.30;3.28;;;;;;;5.63;80.52;97570.22;5079592;28;20097;-77
2022/01/30 06:47:13;;;;;;;13.43;5.25;;;;;;;5.64;80.67;97571.88;5079216;28;20107;-78
2022/01/30 06:49:42;;;;;;;9.10;3.72;;;;;;;5.60;80.27;97586.03;5080425;28;20329;-77
2022/01/30 06:52:11;;;;;;;6.65;3.63;;;;;;;5.54;80.29;97586.53;5078180;28;20098;-76
2022/01/30 06:54:39;;;;;;;6.47;2.83;;;;;;;5.50;80.24;97590.31;5059967;28;20056;-79
2022/01/30 06:57:07;;;;;;;16.85;3.70;;;;;;;5.45;80.38;97587.28;5058860;28;20072;-77
2022/01/30 06:59:35;;;;;;;11.60;3.25;;;;;;;5.37;80.24;97580.94;5060030;28;20140;-76
2022/01/30 07:02:04;;;;;;;6.65;3.10;;;;;;;5.33;80.24;97589.06;5067636;28;20052;-79
2022/01/30 07:04:31;;;;;;;9.52;3.20;;;;;;;5.29;80.07;97585.94;5079330;28;20106;-76
2022/01/30 07:07:03;;;;;;;11.63;3.47;;;;;;;5.25;80.09;97592.31;5079436;28;20056;-77
2022/01/30 07:09:31;;;;;;;8.18;3.47;;;;;;;5.22;80.10;97581.38;5078093;28;20059;-77
2022/01/30 07:11:58;;;;;;;9.50;3.13;;;;;;;5.20;80.57;97594.41;5079504;28;20048;-77
2022/01/30 07:14:26;;;;;;;6.55;2.88;;;;;;;5.16;80.20;97593.06;5079408;28;20098;-76
2022/01/30 07:16:54;;;;;;;10.77;3.10;;;;;;;5.14;79.97;97592.34;5078056;28;20059;-78
2022/01/30 07:19:21;;;;;;;8.23;3.30;;;;;;;5.13;80.19;97603.63;5078965;28;20052;-78
2022/01/30 07:21:49;;;;;;;11.48;4.25;;;;;;;5.09;79.88;97608.22;5079738;28;20162;-79
2022/01/30 07:24:18;;;;;;;9.52;4.10;;;;;;;5.06;79.25;97615.41;5080465;28;20045;-79
2022/01/30 07:26:46;;;;;;;8.45;3.30;;;;;;;5.04;79.87;97612.13;5078281;28;20060;-81
2022/01/30 07:29:13;;;;;;;11.02;3.20;;;;;;;5.02;79.61;97621.75;5061357;28;20075;-80
2022/01/30 07:31:41;;;;;;;10.95;3.45;;;;;;;4.99;79.04;97615.06;5061775;28;20057;-78
2022/01/30 07:34:08;;;;;;;12.70;3.83;;;;;;;4.99;78.88;97627.19;5061336;28;20517;-78
2022/01/30 07:36:37;;;;;;;10.07;3.30;;;;;;;4.98;79.01;97628.13;5072343;28;20538;-78
2022/01/30 07:39:07;;;;;;;12.90;3.83;;;;;;;4.94;78.99;97633.53;5082610;28;20048;-78
2022/01/30 07:41:36;;;;;;;8.90;3.10;;;;;;;4.92;78.59;97632.03;5080265;28;20048;-76
2022/01/30 07:44:05;;;;;;;10.45;3.45;;;;;;;4.89;78.76;97627.88;5080387;28;20052;-78
2022/01/30 07:46:33;;;;;;;11.88;3.60;;;;;;;4.91;78.54;97625.19;5080006;28;20044;-77
2022/01/30 07:49:00;;;;;;;11.20;3.17;;;;;;;4.91;77.74;97623.44;5080929;28;20417;-79
2022/01/30 07:51:28;;;;;;;12.45;3.63;;;;;;;4.90;78.00;97619.22;5082223;28;20049;-79
2022/01/30 07:53:56;;;;;;;11.88;3.28;;;;;;;4.89;78.08;97617.56;5082258;28;20049;-78
2022/01/30 07:56:24;;;;;;;11.27;3.00;;;;;;;4.92;78.19;97616.50;5083202;28;20069;-78
2022/01/30 07:58:53;;;;;;;9.75;2.92;;;;;;;4.95;78.22;97611.91;5083404;28;20048;-78
2022/01/30 08:01:20;;;;;;;9.70;3.00;;;;;;;4.99;77.67;97617.66;5080688;28;20049;-79
2022/01/30 08:03:48;;;;;;;14.82;3.33;;;;;;;5.01;77.37;97620.09;5080960;28;20059;-77
2022/01/30 08:06:16;;;;;;;16.58;7.25;;;;;;;4.99;77.50;97607.31;5080077;28;20053;-79
2022/01/30 08:08:43;;;;;;;103.68;55.45;;;;;;;5.00;77.91;97608.94;5108262;22;20043;-77
2022/01/30 08:11:11;;;;;;;16.92;4.55;;;;;;;5.00;77.62;97608.13;5093720;28;20056;-78
2022/01/30 08:13:39;;;;;;;9.65;3.38;;;;;;;5.00;77.32;97608.13;5094042;28;20052;-77
2022/01/30 08:16:08;;;;;;;9.80;3.38;;;;;;;5.02;77.05;97606.25;5093462;28;20051;-77
2022/01/30 08:18:37;;;;;;;9.05;2.83;;;;;;;5.05;76.58;97601.66;5096884;28;20158;-76
2022/01/30 08:21:05;;;;;;;15.00;3.45;;;;;;;5.05;76.54;97598.22;5114262;28;20458;-77
2022/01/30 08:23:33;;;;;;;12.77;2.92;;;;;;;5.07;76.70;97588.59;5114802;28;20504;-76
2022/01/30 08:26:01;;;;;;;14.10;2.90;;;;;;;5.09;76.02;97603.03;5114799;28;20043;-76
2022/01/30 08:28:29;;;;;;;10.52;2.92;;;;;;;5.15;76.74;97592.19;5131998;27;20055;-75
2022/01/30 08:30:56;;;;;;;10.75;3.20;;;;;;;5.18;76.67;97596.31;5134641;27;20519;-76
2022/01/30 08:33:25;;;;;;;11.13;3.22;;;;;;;5.24;76.44;97584.66;5134037;27;20138;-76
2022/01/30 08:35:53;;;;;;;10.52;3.28;;;;;;;5.26;76.16;97591.34;5133990;27;20047;-76
2022/01/30 08:38:21;;;;;;;12.50;3.88;;;;;;;5.28;76.14;97592.03;5134316;27;20078;-76
2022/01/30 08:40:49;;;;;;;10.52;3.38;;;;;;;5.29;75.99;97598.03;5134040;27;20058;-76
2022/01/30 08:43:17;;;;;;;6.18;2.72;;;;;;;5.29;76.11;97604.06;5117488;27;20562;-76
2022/01/30 08:45:44;;;;;;;9.40;3.00;;;;;;;5.28;75.76;97611.91;5113091;28;20043;-75
2022/01/30 08:48:12;;;;;;;77.15;46.47;;;;;;;5.30;76.18;97621.19;5113454;28;20075;-75
2022/01/30 08:50:41;;;;;;;19.77;7.32;;;;;;;5.34;74.09;97639.91;5113281;28;20532;-76
2022/01/30 08:53:15;;;;;;;11.77;5.40;;;;;;;5.34;75.35;97632.13;5113917;28;20078;-76
2022/01/30 08:55:43;;;;;;;12.48;4.50;;;;;;;5.32;74.63;97650.34;5113280;28;20040;-75
2022/01/30 08:58:11;;;;;;;12.13;3.38;;;;;;;5.29;75.50;97645.44;5113572;28;20051;-76
2022/01/30 09:00:41;;;;;;;14.25;2.80;;;;;;;5.29;74.12;97657.53;5113645;28;20138;-76
2022/01/30 09:03:10;;;;;;;12.07;3.58;;;;;;;5.25;74.38;97669.91;5113506;28;20493;-75
2022/01/30 09:05:38;;;;;;;12.63;2.72;;;;;;;5.19;73.23;97670.38;5113306;28;20043;-79
2022/01/30 09:08:07;;;;;;;10.18;2.60;;;;;;;5.16;73.90;97686.16;5115687;28;20059;-76
2022/01/30 09:10:36;;;;;;;10.63;2.53;;;;;;;5.13;73.91;97681.22;5112796;28;20054;-76
2022/01/30 09:13:05;;;;;;;11.95;2.88;;;;;;;5.16;74.52;97692.16;5112993;28;20051;-75
2022/01/30 09:15:37;;;;;;;12.50;2.28;;;;;;;5.14;72.96;97695.81;5112763;28;20055;-76
2022/01/30 09:18:08;;;;;;;13.02;2.33;;;;;;;5.10;73.08;97691.81;5112951;28;20055;-75
2022/01/30 09:20:36;;;;;;;9.85;2.95;;;;;;;5.07;73.97;97694.63;5112109;28;20113;-75
2022/01/30 09:23:04;;;;;;;15.13;2.67;;;;;;;5.06;73.92;97704.16;5113129;28;20251;-75
2022/01/30 09:25:33;;;;;;;13.77;2.58;;;;;;;5.07;73.38;97707.56;5114106;28;20048;-75
2022/01/30 09:28:00;;;;;;;7.25;2.20;;;;;;;5.10;74.32;97709.91;5113151;28;20062;-76
2022/01/30 09:30:28;;;;;;;12.55;2.85;;;;;;;5.15;73.99;97710.38;5113435;28;20059;-76
2022/01/30 09:32:56;;;;;;;11.48;3.63;;;;;;;5.19;74.35;97701.44;5112865;28;20055;-75
2022/01/30 09:35:23;;;;;;;19.58;7.93;;;;;;;5.27;73.65;97708.56;5112503;28;20047;-75
2022/01/30 09:37:51;;;;;;;33.72;18.48;;;;;;;5.35;74.11;97711.38;5112530;28;20052;-76
2022/01/30 09:40:18;;;;;;;13.18;4.57;;;;;;;5.43;73.25;97703.03;5112676;28;20051;-76
2022/01/30 09:42:49;;;;;;;11.13;2.88;;;;;;;5.54;71.99;97701.22;5125079;28;20082;-75
2022/01/30 09:45:18;;;;;;;11.35;4.95;;;;;;;5.69;71.25;97709.50;5131909;28;20043;-76
2022/01/30 09:47:47;;;;;;;9.45;3.28;;;;;;;5.81;70.83;97717.22;5132144;28;20043;-76
2022/01/30 09:50:17;;;;;;;12.07;3.63;;;;;;;5.86;70.29;97721.09;5134971;28;20051;-76
2022/01/30 09:52:44;;;;;;;8.65;2.40;;;;;;;5.94;70.31;97707.53;5133792;28;20054;-75
2022/01/30 09:55:15;;;;;;;11.73;2.65;;;;;;;6.00;70.14;97701.88;5133156;28;20055;-76
2022/01/30 09:57:44;;;;;;;10.30;2.65;;;;;;;6.06;69.86;97708.34;5132979;28;20043;-76
2022/01/30 10:00:14;;;;;;;9.48;2.53;;;;;;;6.09;69.65;97706.28;5133209;28;20047;-76
2022/01/30 10:02:42;;;;;;;9.13;2.20;;;;;;;6.06;68.96;97709.16;5133309;28;20050;-77
2022/01/30 10:05:12;;;;;;;13.60;2.83;;;;;;;6.02;68.05;97710.34;5132710;28;20047;-77
2022/01/30 10:07:45;;;;;;;10.93;2.67;;;;;;;5.99;67.94;97705.41;5133632;27;20043;-76
2022/01/30 10:10:16;;;;;;;10.23;2.33;;;;;;;6.06;68.72;97705.75;5131218;28;20051;-76
2022/01/30 10:13:08;;;;;;;13.48;3.72;;;;;;;6.34;67.47;97701.66;5112487;28;20044;-77
2022/01/30 10:15:53;;;;;;;10.10;3.05;;;;;;;6.70;66.73;97689.16;5112904;28;20058;-78
2022/01/30 10:18:21;;;;;;;11.75;2.50;;;;;;;7.10;66.32;97693.53;5111513;28;20713;-77
2022/01/30 10:20:49;;;;;;;14.75;3.10;;;;;;;7.43;65.87;97695.78;5112725;28;20048;-76
2022/01/30 10:23:17;;;;;;;8.82;2.42;;;;;;;7.54;64.16;97701.78;5112797;28;20070;-77
2022/01/30 10:25:53;;;;;;;16.73;4.28;;;;;;;7.47;61.16;97701.50;5112028;28;20048;-78
2022/01/30 10:28:26;;;;;;;10.00;3.00;;;;;;;7.32;62.64;97698.47;5129027;28;20051;-77
2022/01/30 10:30:57;;;;;;;8.82;2.60;;;;;;;7.15;62.73;97704.31;5133414;27;20420;-77
2022/01/30 10:33:40;;;;;;;11.32;2.15;;;;;;;6.99;62.28;97705.63;5136635;27;20099;-77
2022/01/30 10:36:09;;;;;;;7.82;2.05;;;;;;;6.89;62.15;97717.78;5134773;27;20450;-76
2022/01/30 10:38:39;;;;;;;7.05;1.90;;;;;;;6.78;61.32;97726.47;5136308;27;20059;-77
2022/01/30 10:41:14;;;;;;;9.20;2.40;;;;;;;6.80;62.35;97727.16;5136534;27;20092;-76
2022/01/30 10:43:57;;;;;;;10.30;2.90;;;;;;;7.10;58.52;97716.88;5115935;28;20055;-77
2022/01/30 10:46:28;;;;;;;11.43;2.53;;;;;;;7.50;57.41;97726.38;5115396;28;20043;-76
2022/01/30 10:48:58;;;;;;;7.68;2.38;;;;;;;7.97;58.94;97724.75;5115516;28;20109;-77
2022/01/30 10:51:27;;;;;;;8.57;2.10;;;;;;;8.42;56.13;97734.59;5115926;28;20066;-77
2022/01/30 10:53:56;;;;;;;6.95;2.33;;;;;;;8.71;57.21;97740.69;5115820;28;20055;-77
2022/01/30 10:56:26;;;;;;;10.77;2.08;;;;;;;9.03;55.20;97724.66;5115666;28;20047;-76
2022/01/30 10:59:14;;;;;;;7.57;2.50;;;;;;;9.21;51.96;97728.16;5121815;28;20048;-79
2022/01/30 11:01:45;;;;;;;11.73;2.70;;;;;;;9.32;52.49;97729.72;5116603;28;20044;-78
2022/01/30 11:04:24;;;;;;;6.88;1.83;;;;;;;9.36;51.74;97728.47;5116351;28;20062;-75
2022/01/30 11:06:52;;;;;;;9.38;2.08;;;;;;;9.37;51.59;97727.50;5115027;28;20493;-75
2022/01/30 11:09:24;;;;;;;8.93;2.35;;;;;;;9.30;53.10;97725.66;5116833;28;20051;-75
2022/01/30 11:11:57;;;;;;;9.15;2.15;;;;;;;9.00;54.31;97723.16;5116939;28;20052;-75
2022/01/30 11:14:36;;;;;;;10.15;2.95;;;;;;;8.79;53.44;97715.59;5119325;28;20047;-78
2022/01/30 11:17:07;;;;;;;12.10;3.05;;;;;;;8.61;56.31;97714.69;5115694;28;20043;-78
2022/01/30 11:19:37;;;;;;;9.98;2.67;;;;;;;8.39;54.75;97710.63;5115205;28;20047;-76
2022/01/30 11:22:07;;;;;;;28.02;11.40;;;;;;;8.19;55.69;97709.84;5114970;28;20051;-76
2022/01/30 11:24:44;;;;;;;8.70;2.03;;;;;;;8.02;55.61;97703.56;5115343;28;20052;-74
2022/01/30 11:27:12;;;;;;;9.77;2.38;;;;;;;7.90;54.89;97704.69;5115697;27;20515;-76
2022/01/30 11:29:39;;;;;;;7.45;2.55;;;;;;;7.77;57.30;97694.56;5117225;28;20048;-75
2022/01/30 11:32:09;;;;;;;8.05;2.00;;;;;;;7.70;57.33;97702.09;5116154;28;20048;-75
2022/01/30 11:34:38;;;;;;;9.95;2.80;;;;;;;7.69;58.21;97697.03;5120023;28;20039;-80
2022/01/30 11:37:08;;;;;;;7.47;1.67;;;;;;;7.76;56.17;97692.91;5116962;28;20054;-76
2022/01/30 11:39:37;;;;;;;8.80;2.13;;;;;;;7.76;58.54;97701.53;5115400;28;20237;-75
2022/01/30 11:42:18;;;;;;;6.97;2.20;;;;;;;7.68;55.23;97696.19;5121023;27;20457;-76
2022/01/30 11:44:46;;;;;;;9.10;2.67;;;;;;;7.61;57.38;97700.31;5135055;27;20050;-75
2022/01/30 11:47:23;;;;;;;7.78;1.75;;;;;;;7.53;58.42;97716.56;5135047;27;20043;-75
2022/01/30 11:50:05;;;;;;;5.22;1.67;;;;;;;7.41;58.15;97710.66;5135759;27;20047;-76
2022/01/30 11:52:52;;;;;;;8.93;2.17;;;;;;;7.31;58.77;97711.59;5135532;27;20054;-75
2022/01/30 11:55:59;;;;;;;9.85;2.15;;;;;;;7.19;59.23;97705.69;5135042;27;20837;-75
2022/01/30 11:58:49;;;;;;;12.38;2.00;;;;;;;7.06;56.82;97712.91;5135520;27;20062;-76
2022/01/30 12:01:38;;;;;;;7.88;2.25;;;;;;;6.93;57.67;97711.38;5129424;27;20051;-75
2022/01/30 12:04:13;;;;;;;7.68;2.08;;;;;;;6.84;60.04;97712.13;5123483;27;20078;-75
2022/01/30 12:06:47;;;;;;;5.65;1.80;;;;;;;6.86;59.61;97710.22;5114300;28;20043;-75
2022/01/30 12:09:29;;;;;;;9.13;2.17;;;;;;;6.87;59.19;97706.69;5114463;28;20044;-76
2022/01/30 12:12:08;;;;;;;8.60;2.30;;;;;;;6.87;59.32;97717.06;5114526;28;20124;-74
2022/01/30 12:14:55;;;;;;;8.88;1.90;;;;;;;6.88;60.85;97718.69;5115752;28;20047;-75
2022/01/30 12:17:50;;;;;;;12.52;6.88;;;;;;;6.86;59.92;97715.41;5132438;28;20048;-76
2022/01/30 12:20:22;;;;;;;9.02;2.60;;;;;;;6.88;61.10;97713.53;5133834;28;20138;-76
2022/01/30 12:22:51;;;;;;;8.27;2.92;;;;;;;7.00;61.06;97711.66;5126660;28;20043;-75
2022/01/30 12:25:38;;;;;;;11.88;2.60;;;;;;;7.00;58.42;97722.84;5115204;28;20043;-75
2022/01/30 12:28:15;;;;;;;8.50;2.22;;;;;;;6.99;56.53;97717.78;5114053;28;20043;-76